LSME - Emmen, Switzerland
Distance from HB9FEE: SW 14km
Updated: Wed, 17-Jul-2024 11:20pm CEST
Clear
Clear
 Wind from calm
Wind: Calm
Temperature: 18°C
Dew Point: 16°C
Humidity: 88%
Barometer: 1022 hPa
Clouds: Clear
Visibility: 10 km
2024/07/17 21:20 LSME 172120Z AUTO 00000KT 9999NDV NCD 18/16 Q1022 RMK
LSZC - Buochs, Switzerland
Distance from HB9FEE: S 25km
Updated: Wed, 17-Jul-2024 11:50pm CEST
Clear
Clear
 Wind from WSW
Wind: WSW 9 km/h
Temperature: 18°C
Dew Point: 15°C
Humidity: 83%
Barometer: 1022 hPa
Summary: Clear
Visibility: greater than 10 km
2024/07/17 21:50 LSZC 172150Z AUTO 24005KT 180V290 CAVOK 18/15 Q1022
 
LSMA - Alpnach, Switzerland
Distance from HB9FEE: SSW 29km
Updated: Wed, 17-Jul-2024 11:20pm CEST
Clear
Clear
 Wind from calm
Wind: Calm
Temperature: 18°C
Dew Point: 16°C
Humidity: 88%
Barometer: 1022 hPa
Clouds: Clear
Visibility: 10 km
2024/07/17 21:20 LSMA 172120Z AUTO 00000KT 9999NDV NCD 18/16 Q1022 RMK
LSMD - Dubendorf, Switzerland
Distance from HB9FEE: NE 29km
Updated: Wed, 17-Jul-2024 11:20pm CEST
Clear
Clear
 Wind from varies
Wind: varies 2 km/h
Temperature: 19°C
Dew Point: 15°C
Humidity: 78%
Barometer: 1022 hPa
Clouds: Clear
Visibility: 10 km
2024/07/17 21:20 LSMD 172120Z AUTO VRB01KT 9999NDV NCD 19/15 Q1022 RMK
 
LSZH - Zurich-Kloten (a, Switzerland
Distance from HB9FEE: NNE 33km
Updated: Wed, 17-Jul-2024 11:50pm CEST
Clear
Clear
 Wind from WNW
Wind: WNW 7 km/h
Temperature: 16°C
Dew Point: 14°C
Humidity: 88%
Barometer: 1022 hPa
Summary: Clear
Visibility: greater than 10 km
2024/07/17 21:50 LSZH 172150Z AUTO 29004KT CAVOK 16/14 Q1022 NOSIG
LSMM - Meiringen, Switzerland
Distance from HB9FEE: SSW 54km
Updated: Wed, 17-Jul-2024 11:20pm CEST
Overcast
Overcast
 Wind from E
Wind: E 11 km/h
Temperature: 19°C
Dew Point: 16°C
Humidity: 83%
Barometer: 1022 hPa
Clouds: Overcast
Visibility: 10 km
Cloud details: Overcast 1341 m
2024/07/17 21:20 LSMM 172120Z AUTO 09006KT 050V120 9999NDV OVC044 19/16 Q1022 RMK
 
LSZB - Bern/Belp, Switzerland
Distance from HB9FEE: WSW 76km
Updated: Wed, 17-Jul-2024 11:50pm CEST
Clear
Clear
 Wind from varies
Wind: varies 2 km/h
Temperature: 17°C
Dew Point: 15°C
Humidity: 88%
Barometer: 1021 hPa
Summary: Clear
Visibility: greater than 10 km
2024/07/17 21:50 LSZB 172150Z AUTO VRB01KT CAVOK 17/15 Q1021
LSZG - Grenchen, Switzerland
Distance from HB9FEE: W 76km
Updated: Wed, 17-Jul-2024 11:50pm CEST
Clear
Clear
 Wind from ENE
Wind: ENE 9 km/h
Temperature: 17°C
Dew Point: 14°C
Humidity: 83%
Barometer: 1021 hPa
Summary: Clear
Visibility: greater than 10 km
2024/07/17 21:50 LSZG 172150Z AUTO 06005KT CAVOK 17/14 Q1021
 
LFSB - Bale/Mulhouse, France
Distance from HB9FEE: NW 82km
Updated: Wed, 17-Jul-2024 11:30pm CEST
Clear
Clear
 Wind from NW
Wind: NW 6 km/h
Temperature: 17°C
Dew Point: 14°C
Humidity: 83%
Barometer: 1021 hPa
Summary: Clear
Visibility: greater than 10 km
2024/07/17 21:30 LFSB 172130Z AUTO 32003KT CAVOK 17/14 Q1021 NOSIG
LSZR - Rheineck/Altenrh, Switzerland
Distance from HB9FEE: ENE 92km
Updated: Wed, 17-Jul-2024 11:50pm CEST
Clear
Clear
 Wind from ESE
Wind: ESE 6 km/h
Temperature: 18°C
Dew Point: 16°C
Humidity: 88%
Barometer: 1022 hPa
Summary: Clear
Visibility: greater than 10 km
2024/07/17 21:50 LSZR 172150Z AUTO 11003KT CAVOK 18/16 Q1022
 
LSZL - Locarno, Switzerland
Distance from HB9FEE: SSE 119km
Updated: Wed, 17-Jul-2024 11:20pm CEST
Clear
Clear
 Wind from E
Wind: E 7 km/h
Temperature: 23°C
Dew Point: 20°C
Humidity: 83%
Barometer: 1017 hPa
Clouds: Clear
Visibility: 10 km
2024/07/17 21:20 LSZL 172120Z AUTO 08004KT 9999NDV NCD 23/20 Q1017 RMK
LSMP - Payerne (mil/Aut, Switzerland
Distance from HB9FEE: WSW 121km
Updated: Wed, 17-Jul-2024 11:20pm CEST
Clear
Clear
 Wind from varies
Wind: varies 2 km/h
Temperature: 19°C
Dew Point: 14°C
Humidity: 73%
Barometer: 1021 hPa
Clouds: Clear
Visibility: 10 km
2024/07/17 21:20 LSMP 172120Z AUTO VRB01KT 9999NDV NCD 19/14 Q1021 RMK
 
LSGC - Les Eplatures, Switzerland
Distance from HB9FEE: W 123km
Updated: Wed, 17-Jul-2024 11:50pm CEST
Clear
Clear
 Wind from NNE
Wind: NNE 9 km/h
Temperature: 15°C
Dew Point: 11°C
Humidity: 77%
Barometer: 1024 hPa
Summary: Clear
Visibility: greater than 10 km
2024/07/17 21:50 LSGC 172150Z AUTO 02005KT 340V050 CAVOK 15/11 Q1024
LSZS - Samedan, Switzerland
Distance from HB9FEE: ESE 133km
Updated: Wed, 17-Jul-2024 11:50pm CEST
Partly Cloudy
Partly Cloudy
 Wind from NNE
Wind: NNE 6 km/h
Temperature: 12°C
Dew Point: 12°C
Humidity: 100%
Barometer: 1027 hPa
Clouds: Partly Cloudy
Visibility: 10 km
Cloud details: Partly Cloudy 1189 m
2024/07/17 21:50 LSZS 172150Z AUTO 02003KT 340V090 9999 SCT039 12/12 Q1027
 
LSGS - Sion (mil/Civ/Au, Switzerland
Distance from HB9FEE: SW 137km
Updated: Wed, 17-Jul-2024 11:50pm CEST
Clear
Clear
 Wind from E
Wind: E 4 km/h
Temperature: 20°C
Dew Point: 15°C
Humidity: 73%
Barometer: 1021 hPa
Summary: Clear
Visibility: greater than 10 km
2024/07/17 21:50 LSGS 172150Z AUTO 08002KT CAVOK 20/15 Q1021
LSZA - Lugano (pvt/Aut), Switzerland
Distance from HB9FEE: SSE 138km
Updated: Wed, 17-Jul-2024 11:50pm CEST
Clear
Clear
 Wind from N
Wind: N 2 km/h
Temperature: 22°C
Dew Point: 20°C
Humidity: 88%
Barometer: 1018 hPa
Summary: Clear
Visibility: greater than 10 km
2024/07/17 21:50 LSZA 172150Z AUTO 36001KT CAVOK 22/20 Q1018